Bristol, RI (02809)

1:41 PM EDT on September 04, 2015 (GMT -0400)
East of Town Common | | Change Station
CLOSE
Current Station
Personal Weather Station
Location: Bristol, RI
Elevation: 48 ft
Nearby Weather Stations

Elev 48 ft 41.67 °N, 71.27 °W | Updated 4 minutes ago

Partly Cloudy
Partly Cloudy
73.8 °F
Feels Like 76 °F
N
6.0
Wind Variable Wind from NNE
Gusts 9.0 mph

Today
High -- | Low -- °F
--% Chance of Precip.
Yesterday
High -- | Low -- °F
Precip. -- in
6:13 AM 7:13 PM
Waning Gibbous, 57% visible
Pressure 30.16 in
Visibility 10.0 miles
Clouds Few 4000 ft
Few 10000 ft
Scattered Clouds 15000 ft
Scattered Clouds 30000 ft
Heat Index 76 °F
Dew Point 64 °F
Humidity 71%
Rainfall 0.00 in
Snow Depth Not available.
UV 7 out of 12
Pollen 7.80 out of 12
Air Quality Not available.
Flu Activity Not available.
METAR KPVD 041651Z COR 05015G22KT 10SM FEW040 FEW100 SCT150 SCT300 26/14 A3016 RMK AO2 SLP211 T02560139
Pressure 30.16 in
Visibility 10.0 miles
Clouds Few 4000 ft
Few 10000 ft
Scattered Clouds 15000 ft
Scattered Clouds 30000 ft
Heat Index 76 °F
Dew Point 64 °F
Humidity 71%
Rainfall 0.00 in
Snow Depth Not available.
UV 7 out of 12
Pollen 7.80 out of 12
Air Quality Not available.
Flu Activity Not available.
METAR KPVD 041651Z COR 05015G22KT 10SM FEW040 FEW100 SCT150 SCT300 26/14 A3016 RMK AO2 SLP211 T02560139

10-Day Weather Forecast

×

Almanac

Astronomy

Sep. 04, 2015 Rise Set
Actual Time
Civil Twilight
Nautical Twilight
Astronomical Twilight
Moon
Length of Visible Light
Length of Day
Tomorrow will be .
, % of the Moon is Illuminated

Today's Extremes

State Highs State Lows

Community

WunderPhotos

Upload Photos

1,852,250 photos uploaded!

WunderBlogs® & News

Nearby

Air Quality

  Air Quality AQ Index Pollutant
Not available.

Snow Depth

Station Depth Elevation

Earthquake Activity

City Distance Mag. Time & Date
Minimum magnitude displayed is 2.5.

Coastal Water Temperatures

Place Temperature

Stations

Nearby Weather Stations

Station Location Temp. Windchill Dew Point Humidity Wind Precip. Elev Updated Type